sensor_id;sensor_type;location;lat;lon;timestamp;P1;P2;P0
78408;PMS5003;67697;50.750;-3.270;2023-03-23T00:00:23;7;6;
78408;PMS5003;67697;50.750;-3.270;2023-03-23T00:02:49;4;3;
78408;PMS5003;67697;50.750;-3.270;2023-03-23T00:05:14;6;4;
78408;PMS5003;67697;50.750;-3.270;2023-03-23T00:07:40;9;4;
78408;PMS5003;67697;50.750;-3.270;2023-03-23T00:10:06;8;4;
78408;PMS5003;67697;50.750;-3.270;2023-03-23T00:12:31;3;3;
78408;PMS5003;67697;50.750;-3.270;2023-03-23T00:14:57;4;3;
78408;PMS5003;67697;50.750;-3.270;2023-03-23T00:17:23;8;4;
78408;PMS5003;67697;50.750;-3.270;2023-03-23T00:19:48;13;7;
78408;PMS5003;67697;50.750;-3.270;2023-03-23T00:22:14;4;3;
78408;PMS5003;67697;50.750;-3.270;2023-03-23T00:24:40;9;7;
78408;PMS5003;67697;50.750;-3.270;2023-03-23T00:27:05;3;3;
78408;PMS5003;67697;50.750;-3.270;2023-03-23T00:29:31;7;6;
78408;PMS5003;67697;50.750;-3.270;2023-03-23T00:31:57;6;6;
78408;PMS5003;67697;50.750;-3.270;2023-03-23T00:34:22;4;4;
78408;PMS5003;67697;50.750;-3.270;2023-03-23T00:36:49;6;6;
78408;PMS5003;67697;50.750;-3.270;2023-03-23T00:39:14;2;2;
78408;PMS5003;67697;50.750;-3.270;2023-03-23T00:41:39;8;4;
78408;PMS5003;67697;50.750;-3.270;2023-03-23T00:44:05;12;6;
78408;PMS5003;67697;50.750;-3.270;2023-03-23T00:46:31;12;8;
78408;PMS5003;67697;50.750;-3.270;2023-03-23T00:48:56;7;6;
78408;PMS5003;67697;50.750;-3.270;2023-03-23T00:51:23;6;3;
78408;PMS5003;67697;50.750;-3.270;2023-03-23T00:53:49;8;6;
78408;PMS5003;67697;50.750;-3.270;2023-03-23T00:56:14;10;5;
78408;PMS5003;67697;50.750;-3.270;2023-03-23T00:58:39;7;7;
78408;PMS5003;67697;50.750;-3.270;2023-03-23T01:01:05;7;6;
78408;PMS5003;67697;50.750;-3.270;2023-03-23T01:03:31;18;7;
78408;PMS5003;67697;50.750;-3.270;2023-03-23T01:05:56;13;5;
78408;PMS5003;67697;50.750;-3.270;2023-03-23T01:08:21;6;3;
78408;PMS5003;67697;50.750;-3.270;2023-03-23T01:10:47;15;6;
78408;PMS5003;67697;50.750;-3.270;2023-03-23T01:13:13;11;6;
78408;PMS5003;67697;50.750;-3.270;2023-03-23T01:15:38;7;2;
78408;PMS5003;67697;50.750;-3.270;2023-03-23T01:18:04;6;2;
78408;PMS5003;67697;50.750;-3.270;2023-03-23T01:20:30;8;6;
78408;PMS5003;67697;50.750;-3.270;2023-03-23T01:22:55;8;8;
78408;PMS5003;67697;50.750;-3.270;2023-03-23T01:25:21;7;5;
78408;PMS5003;67697;50.750;-3.270;2023-03-23T01:27:47;13;6;
78408;PMS5003;67697;50.750;-3.270;2023-03-23T01:30:13;7;2;
78408;PMS5003;67697;50.750;-3.270;2023-03-23T01:32:38;8;4;
78408;PMS5003;67697;50.750;-3.270;2023-03-23T01:35:04;8;5;
78408;PMS5003;67697;50.750;-3.270;2023-03-23T01:37:30;12;7;
78408;PMS5003;67697;50.750;-3.270;2023-03-23T01:39:56;6;3;
78408;PMS5003;67697;50.750;-3.270;2023-03-23T01:42:22;10;7;
78408;PMS5003;67697;50.750;-3.270;2023-03-23T01:47:12;12;8;
78408;PMS5003;67697;50.750;-3.270;2023-03-23T01:49:39;12;6;
78408;PMS5003;67697;50.750;-3.270;2023-03-23T01:52:04;6;3;
78408;PMS5003;67697;50.750;-3.270;2023-03-23T01:54:30;11;5;
78408;PMS5003;67697;50.750;-3.270;2023-03-23T01:56:56;15;6;
78408;PMS5003;67697;50.750;-3.270;2023-03-23T01:59:21;7;5;
78408;PMS5003;67697;50.750;-3.270;2023-03-23T02:01:47;16;11;
78408;PMS5003;67697;50.750;-3.270;2023-03-23T02:04:12;8;6;
78408;PMS5003;67697;50.750;-3.270;2023-03-23T02:06:38;8;5;
78408;PMS5003;67697;50.750;-3.270;2023-03-23T02:09:03;11;6;
78408;PMS5003;67697;50.750;-3.270;2023-03-23T02:11:29;6;3;
78408;PMS5003;67697;50.750;-3.270;2023-03-23T02:13:54;15;5;
78408;PMS5003;67697;50.750;-3.270;2023-03-23T02:16:22;12;8;
78408;PMS5003;67697;50.750;-3.270;2023-03-23T02:18:49;3;3;
78408;PMS5003;67697;50.750;-3.270;2023-03-23T02:21:19;7;5;
78408;PMS5003;67697;50.750;-3.270;2023-03-23T02:23:40;7;7;
78408;PMS5003;67697;50.750;-3.270;2023-03-23T02:26:03;7;2;
78408;PMS5003;67697;50.750;-3.270;2023-03-23T02:28:31;11;7;
78408;PMS5003;67697;50.750;-3.270;2023-03-23T02:30:58;11;5;
78408;PMS5003;67697;50.750;-3.270;2023-03-23T02:35:45;7;3;
78408;PMS5003;67697;50.750;-3.270;2023-03-23T02:38:12;5;3;
78408;PMS5003;67697;50.750;-3.270;2023-03-23T02:40:38;11;6;
78408;PMS5003;67697;50.750;-3.270;2023-03-23T02:43:02;6;3;
78408;PMS5003;67697;50.750;-3.270;2023-03-23T02:45:28;11;6;
78408;PMS5003;67697;50.750;-3.270;2023-03-23T02:47:53;11;8;
78408;PMS5003;67697;50.750;-3.270;2023-03-23T02:50:20;12;8;
78408;PMS5003;67697;50.750;-3.270;2023-03-23T02:52:44;11;8;
78408;PMS5003;67697;50.750;-3.270;2023-03-23T02:55:10;11;8;
78408;PMS5003;67697;50.750;-3.270;2023-03-23T02:57:35;11;6;
78408;PMS5003;67697;50.750;-3.270;2023-03-23T03:00:00;16;5;
78408;PMS5003;67697;50.750;-3.270;2023-03-23T03:02:27;5;3;
78408;PMS5003;67697;50.750;-3.270;2023-03-23T03:04:53;6;3;
78408;PMS5003;67697;50.750;-3.270;2023-03-23T03:07:22;5;5;
78408;PMS5003;67697;50.750;-3.270;2023-03-23T03:09:45;7;5;
78408;PMS5003;67697;50.750;-3.270;2023-03-23T03:12:11;10;7;
78408;PMS5003;67697;50.750;-3.270;2023-03-23T03:14:36;10;5;
78408;PMS5003;67697;50.750;-3.270;2023-03-23T03:17:02;7;6;
78408;PMS5003;67697;50.750;-3.270;2023-03-23T03:19:26;7;5;
78408;PMS5003;67697;50.750;-3.270;2023-03-23T03:21:52;5;5;
78408;PMS5003;67697;50.750;-3.270;2023-03-23T03:24:17;16;10;
78408;PMS5003;67697;50.750;-3.270;2023-03-23T03:26:45;3;2;
78408;PMS5003;67697;50.750;-3.270;2023-03-23T03:29:08;12;2;
78408;PMS5003;67697;50.750;-3.270;2023-03-23T03:31:36;7;6;
78408;PMS5003;67697;50.750;-3.270;2023-03-23T03:33:59;7;3;
78408;PMS5003;67697;50.750;-3.270;2023-03-23T03:36:26;5;3;
78408;PMS5003;67697;50.750;-3.270;2023-03-23T03:38:51;11;5;
78408;PMS5003;67697;50.750;-3.270;2023-03-23T03:41:18;7;7;
78408;PMS5003;67697;50.750;-3.270;2023-03-23T03:43:42;5;2;
78408;PMS5003;67697;50.750;-3.270;2023-03-23T03:46:08;10;5;
78408;PMS5003;67697;50.750;-3.270;2023-03-23T03:48:33;11;6;
78408;PMS5003;67697;50.750;-3.270;2023-03-23T03:50:59;9;4;
78408;PMS5003;67697;50.750;-3.270;2023-03-23T03:53:25;4;3;
78408;PMS5003;67697;50.750;-3.270;2023-03-23T03:55:50;9;6;
78408;PMS5003;67697;50.750;-3.270;2023-03-23T03:58:16;7;4;
78408;PMS5003;67697;50.750;-3.270;2023-03-23T04:00:41;9;9;
78408;PMS5003;67697;50.750;-3.270;2023-03-23T04:03:06;6;4;
78408;PMS5003;67697;50.750;-3.270;2023-03-23T04:05:32;13;6;
78408;PMS5003;67697;50.750;-3.270;2023-03-23T04:07:57;11;8;
78408;PMS5003;67697;50.750;-3.270;2023-03-23T04:10:23;7;7;
78408;PMS5003;67697;50.750;-3.270;2023-03-23T04:12:49;12;9;
78408;PMS5003;67697;50.750;-3.270;2023-03-23T04:15:14;3;3;
78408;PMS5003;67697;50.750;-3.270;2023-03-23T04:17:40;13;7;
78408;PMS5003;67697;50.750;-3.270;2023-03-23T04:20:06;18;9;
78408;PMS5003;67697;50.750;-3.270;2023-03-23T04:22:31;12;8;
78408;PMS5003;67697;50.750;-3.270;2023-03-23T04:24:57;18;8;
78408;PMS5003;67697;50.750;-3.270;2023-03-23T04:27:22;9;6;
78408;PMS5003;67697;50.750;-3.270;2023-03-23T04:29:48;17;8;
78408;PMS5003;67697;50.750;-3.270;2023-03-23T04:32:13;12;6;
78408;PMS5003;67697;50.750;-3.270;2023-03-23T04:34:39;8;6;
78408;PMS5003;67697;50.750;-3.270;2023-03-23T04:37:04;6;4;
78408;PMS5003;67697;50.750;-3.270;2023-03-23T04:39:30;17;7;
78408;PMS5003;67697;50.750;-3.270;2023-03-23T04:41:55;9;9;
78408;PMS5003;67697;50.750;-3.270;2023-03-23T04:44:21;14;13;
78408;PMS5003;67697;50.750;-3.270;2023-03-23T04:46:46;14;7;
78408;PMS5003;67697;50.750;-3.270;2023-03-23T04:49:12;14;10;
78408;PMS5003;67697;50.750;-3.270;2023-03-23T04:51:37;12;9;
78408;PMS5003;67697;50.750;-3.270;2023-03-23T04:54:03;13;9;
78408;PMS5003;67697;50.750;-3.270;2023-03-23T04:56:28;17;10;
78408;PMS5003;67697;50.750;-3.270;2023-03-23T04:58:53;17;9;
78408;PMS5003;67697;50.750;-3.270;2023-03-23T05:01:19;13;12;
78408;PMS5003;67697;50.750;-3.270;2023-03-23T05:03:45;10;7;
78408;PMS5003;67697;50.750;-3.270;2023-03-23T05:06:10;13;9;
78408;PMS5003;67697;50.750;-3.270;2023-03-23T05:08:36;13;9;
78408;PMS5003;67697;50.750;-3.270;2023-03-23T05:11:01;8;6;
78408;PMS5003;67697;50.750;-3.270;2023-03-23T05:13:27;14;8;
78408;PMS5003;67697;50.750;-3.270;2023-03-23T05:15:52;20;8;
78408;PMS5003;67697;50.750;-3.270;2023-03-23T05:18:18;14;8;
78408;PMS5003;67697;50.750;-3.270;2023-03-23T05:20:43;13;9;
78408;PMS5003;67697;50.750;-3.270;2023-03-23T05:23:09;14;9;
78408;PMS5003;67697;50.750;-3.270;2023-03-23T05:25:35;7;7;
78408;PMS5003;67697;50.750;-3.270;2023-03-23T05:28:00;11;7;
78408;PMS5003;67697;50.750;-3.270;2023-03-23T05:30:25;20;8;
78408;PMS5003;67697;50.750;-3.270;2023-03-23T05:32:51;9;6;
78408;PMS5003;67697;50.750;-3.270;2023-03-23T05:35:17;13;8;
78408;PMS5003;67697;50.750;-3.270;2023-03-23T05:37:42;12;9;
78408;PMS5003;67697;50.750;-3.270;2023-03-23T05:40:08;8;6;
78408;PMS5003;67697;50.750;-3.270;2023-03-23T05:42:33;11;6;
78408;PMS5003;67697;50.750;-3.270;2023-03-23T05:44:58;11;6;
78408;PMS5003;67697;50.750;-3.270;2023-03-23T05:47:24;14;7;
78408;PMS5003;67697;50.750;-3.270;2023-03-23T05:49:49;10;7;
78408;PMS5003;67697;50.750;-3.270;2023-03-23T05:52:14;12;6;
78408;PMS5003;67697;50.750;-3.270;2023-03-23T05:54:40;12;12;
78408;PMS5003;67697;50.750;-3.270;2023-03-23T05:57:06;10;6;
78408;PMS5003;67697;50.750;-3.270;2023-03-23T05:59:31;8;8;
78408;PMS5003;67697;50.750;-3.270;2023-03-23T06:01:56;15;6;
78408;PMS5003;67697;50.750;-3.270;2023-03-23T06:04:22;13;7;
78408;PMS5003;67697;50.750;-3.270;2023-03-23T06:06:47;8;6;
78408;PMS5003;67697;50.750;-3.270;2023-03-23T06:09:13;13;7;
78408;PMS5003;67697;50.750;-3.270;2023-03-23T06:11:39;10;7;
78408;PMS5003;67697;50.750;-3.270;2023-03-23T06:14:05;9;6;
78408;PMS5003;67697;50.750;-3.270;2023-03-23T06:16:30;7;6;
78408;PMS5003;67697;50.750;-3.270;2023-03-23T06:18:56;3;3;
78408;PMS5003;67697;50.750;-3.270;2023-03-23T06:21:22;8;4;
78408;PMS5003;67697;50.750;-3.270;2023-03-23T06:23:47;13;4;
78408;PMS5003;67697;50.750;-3.270;2023-03-23T06:26:13;9;4;
78408;PMS5003;67697;50.750;-3.270;2023-03-23T06:28:38;8;3;
78408;PMS5003;67697;50.750;-3.270;2023-03-23T06:31:04;10;4;
78408;PMS5003;67697;50.750;-3.270;2023-03-23T06:33:29;9;8;
78408;PMS5003;67697;50.750;-3.270;2023-03-23T06:35:55;7;4;
78408;PMS5003;67697;50.750;-3.270;2023-03-23T06:38:20;8;7;
78408;PMS5003;67697;50.750;-3.270;2023-03-23T06:40:46;7;7;
78408;PMS5003;67697;50.750;-3.270;2023-03-23T06:43:12;7;4;
78408;PMS5003;67697;50.750;-3.270;2023-03-23T06:45:37;7;3;
78408;PMS5003;67697;50.750;-3.270;2023-03-23T06:48:03;18;10;
78408;PMS5003;67697;50.750;-3.270;2023-03-23T06:50:28;9;6;
78408;PMS5003;67697;50.750;-3.270;2023-03-23T06:52:54;12;10;
78408;PMS5003;67697;50.750;-3.270;2023-03-23T06:55:19;10;8;
78408;PMS5003;67697;50.750;-3.270;2023-03-23T06:57:45;10;7;
78408;PMS5003;67697;50.750;-3.270;2023-03-23T07:00:10;13;10;
78408;PMS5003;67697;50.750;-3.270;2023-03-23T07:02:35;8;6;
78408;PMS5003;67697;50.750;-3.270;2023-03-23T07:05:01;8;4;
78408;PMS5003;67697;50.750;-3.270;2023-03-23T07:07:26;8;7;
78408;PMS5003;67697;50.750;-3.270;2023-03-23T07:09:51;15;7;
78408;PMS5003;67697;50.750;-3.270;2023-03-23T07:12:17;9;9;
78408;PMS5003;67697;50.750;-3.270;2023-03-23T07:14:42;8;7;
78408;PMS5003;67697;50.750;-3.270;2023-03-23T07:17:08;16;9;
78408;PMS5003;67697;50.750;-3.270;2023-03-23T07:19:33;9;7;
78408;PMS5003;67697;50.750;-3.270;2023-03-23T07:21:59;9;5;
78408;PMS5003;67697;50.750;-3.270;2023-03-23T07:24:25;7;7;
78408;PMS5003;67697;50.750;-3.270;2023-03-23T07:26:50;13;8;
78408;PMS5003;67697;50.750;-3.270;2023-03-23T07:29:16;8;7;
78408;PMS5003;67697;50.750;-3.270;2023-03-23T07:31:42;10;7;
78408;PMS5003;67697;50.750;-3.270;2023-03-23T07:34:07;9;5;
78408;PMS5003;67697;50.750;-3.270;2023-03-23T07:36:33;13;9;
78408;PMS5003;67697;50.750;-3.270;2023-03-23T07:38:58;8;5;
78408;PMS5003;67697;50.750;-3.270;2023-03-23T07:41:23;66;54;
78408;PMS5003;67697;50.750;-3.270;2023-03-23T07:46:15;33;28;
78408;PMS5003;67697;50.750;-3.270;2023-03-23T07:48:40;14;9;
78408;PMS5003;67697;50.750;-3.270;2023-03-23T07:51:06;15;8;
78408;PMS5003;67697;50.750;-3.270;2023-03-23T07:53:31;9;5;
78408;PMS5003;67697;50.750;-3.270;2023-03-23T07:55:57;14;4;
78408;PMS5003;67697;50.750;-3.270;2023-03-23T07:58:22;11;4;
78408;PMS5003;67697;50.750;-3.270;2023-03-23T08:00:47;14;5;
78408;PMS5003;67697;50.750;-3.270;2023-03-23T08:03:12;14;7;
78408;PMS5003;67697;50.750;-3.270;2023-03-23T08:05:38;14;9;
78408;PMS5003;67697;50.750;-3.270;2023-03-23T08:08:03;11;9;
78408;PMS5003;67697;50.750;-3.270;2023-03-23T08:10:29;14;9;
78408;PMS5003;67697;50.750;-3.270;2023-03-23T08:12:55;14;7;
78408;PMS5003;67697;50.750;-3.270;2023-03-23T08:15:19;10;5;
78408;PMS5003;67697;50.750;-3.270;2023-03-23T08:17:50;10;9;
78408;PMS5003;67697;50.750;-3.270;2023-03-23T08:20:10;8;7;
78408;PMS5003;67697;50.750;-3.270;2023-03-23T08:22:36;11;8;
78408;PMS5003;67697;50.750;-3.270;2023-03-23T08:25:01;8;7;
78408;PMS5003;67697;50.750;-3.270;2023-03-23T08:27:26;13;9;
78408;PMS5003;67697;50.750;-3.270;2023-03-23T08:29:52;19;7;
78408;PMS5003;67697;50.750;-3.270;2023-03-23T08:32:18;15;9;
78408;PMS5003;67697;50.750;-3.270;2023-03-23T08:34:44;10;8;
78408;PMS5003;67697;50.750;-3.270;2023-03-23T08:37:09;10;5;
78408;PMS5003;67697;50.750;-3.270;2023-03-23T08:39:34;12;9;
78408;PMS5003;67697;50.750;-3.270;2023-03-23T08:41:59;12;9;
78408;PMS5003;67697;50.750;-3.270;2023-03-23T08:44:24;9;4;
78408;PMS5003;67697;50.750;-3.270;2023-03-23T08:46:50;8;7;
78408;PMS5003;67697;50.750;-3.270;2023-03-23T08:49:15;14;10;
78408;PMS5003;67697;50.750;-3.270;2023-03-23T08:51:41;9;5;
78408;PMS5003;67697;50.750;-3.270;2023-03-23T08:54:07;14;9;
78408;PMS5003;67697;50.750;-3.270;2023-03-23T08:56:32;10;9;
78408;PMS5003;67697;50.750;-3.270;2023-03-23T08:58:58;10;8;
78408;PMS5003;67697;50.750;-3.270;2023-03-23T09:01:23;11;8;
78408;PMS5003;67697;50.750;-3.270;2023-03-23T09:03:49;14;9;
78408;PMS5003;67697;50.750;-3.270;2023-03-23T09:06:14;9;8;
78408;PMS5003;67697;50.750;-3.270;2023-03-23T09:08:40;10;7;
78408;PMS5003;67697;50.750;-3.270;2023-03-23T09:11:06;9;8;
78408;PMS5003;67697;50.750;-3.270;2023-03-23T09:13:30;7;7;
78408;PMS5003;67697;50.750;-3.270;2023-03-23T09:15:56;16;8;
78408;PMS5003;67697;50.750;-3.270;2023-03-23T09:18:22;13;6;
78408;PMS5003;67697;50.750;-3.270;2023-03-23T09:20:49;13;9;
78408;PMS5003;67697;50.750;-3.270;2023-03-23T09:23:12;14;8;
78408;PMS5003;67697;50.750;-3.270;2023-03-23T09:25:38;13;9;
78408;PMS5003;67697;50.750;-3.270;2023-03-23T09:28:04;19;13;
78408;PMS5003;67697;50.750;-3.270;2023-03-23T09:30:30;14;8;
78408;PMS5003;67697;50.750;-3.270;2023-03-23T09:32:55;10;6;
78408;PMS5003;67697;50.750;-3.270;2023-03-23T09:35:20;9;8;
78408;PMS5003;67697;50.750;-3.270;2023-03-23T09:37:45;10;9;
78408;PMS5003;67697;50.750;-3.270;2023-03-23T09:40:11;13;10;
78408;PMS5003;67697;50.750;-3.270;2023-03-23T09:42:38;12;10;
78408;PMS5003;67697;50.750;-3.270;2023-03-23T09:45:05;14;8;
78408;PMS5003;67697;50.750;-3.270;2023-03-23T09:47:29;17;9;
78408;PMS5003;67697;50.750;-3.270;2023-03-23T09:49:53;13;9;
78408;PMS5003;67697;50.750;-3.270;2023-03-23T09:52:17;5;5;
78408;PMS5003;67697;50.750;-3.270;2023-03-23T09:54:43;12;7;
78408;PMS5003;67697;50.750;-3.270;2023-03-23T09:57:11;18;12;
78408;PMS5003;67697;50.750;-3.270;2023-03-23T09:59:35;15;7;
78408;PMS5003;67697;50.750;-3.270;2023-03-23T10:02:04;22;14;
78408;PMS5003;67697;50.750;-3.270;2023-03-23T10:04:28;12;8;
78408;PMS5003;67697;50.750;-3.270;2023-03-23T10:06:50;9;8;
78408;PMS5003;67697;50.750;-3.270;2023-03-23T10:09:16;16;10;
78408;PMS5003;67697;50.750;-3.270;2023-03-23T10:11:44;16;7;
78408;PMS5003;67697;50.750;-3.270;2023-03-23T10:14:09;7;7;
78408;PMS5003;67697;50.750;-3.270;2023-03-23T10:16:33;5;4;
78408;PMS5003;67697;50.750;-3.270;2023-03-23T10:19:00;10;4;
78408;PMS5003;67697;50.750;-3.270;2023-03-23T10:21:23;11;9;
78408;PMS5003;67697;50.750;-3.270;2023-03-23T10:23:52;9;8;
78408;PMS5003;67697;50.750;-3.270;2023-03-23T10:26:21;13;10;
78408;PMS5003;67697;50.750;-3.270;2023-03-23T10:28:42;13;8;
78408;PMS5003;67697;50.750;-3.270;2023-03-23T10:31:08;11;8;
78408;PMS5003;67697;50.750;-3.270;2023-03-23T10:33:33;4;4;
78408;PMS5003;67697;50.750;-3.270;2023-03-23T10:35:57;12;10;
78408;PMS5003;67697;50.750;-3.270;2023-03-23T10:38:23;11;9;
78408;PMS5003;67697;50.750;-3.270;2023-03-23T10:40:49;10;5;
78408;PMS5003;67697;50.750;-3.270;2023-03-23T10:43:13;12;9;
78408;PMS5003;67697;50.750;-3.270;2023-03-23T10:45:38;6;4;
78408;PMS5003;67697;50.750;-3.270;2023-03-23T10:48:06;13;8;
78408;PMS5003;67697;50.750;-3.270;2023-03-23T10:50:30;11;8;
78408;PMS5003;67697;50.750;-3.270;2023-03-23T10:52:54;14;9;
78408;PMS5003;67697;50.750;-3.270;2023-03-23T10:55:20;15;7;
78408;PMS5003;67697;50.750;-3.270;2023-03-23T10:57:45;15;11;
78408;PMS5003;67697;50.750;-3.270;2023-03-23T11:02:37;20;7;
78408;PMS5003;67697;50.750;-3.270;2023-03-23T11:05:02;6;6;
78408;PMS5003;67697;50.750;-3.270;2023-03-23T11:07:28;6;6;
78408;PMS5003;67697;50.750;-3.270;2023-03-23T11:09:52;6;6;
78408;PMS5003;67697;50.750;-3.270;2023-03-23T11:12:17;9;6;
78408;PMS5003;67697;50.750;-3.270;2023-03-23T11:14:43;7;5;
78408;PMS5003;67697;50.750;-3.270;2023-03-23T11:19:34;18;7;
78408;PMS5003;67697;50.750;-3.270;2023-03-23T11:22:04;15;7;
78408;PMS5003;67697;50.750;-3.270;2023-03-23T11:24:24;15;9;
78408;PMS5003;67697;50.750;-3.270;2023-03-23T11:26:50;20;9;
78408;PMS5003;67697;50.750;-3.270;2023-03-23T11:29:16;12;7;
78408;PMS5003;67697;50.750;-3.270;2023-03-23T11:31:42;12;10;
78408;PMS5003;67697;50.750;-3.270;2023-03-23T11:34:09;18;10;
78408;PMS5003;67697;50.750;-3.270;2023-03-23T11:36:33;14;10;
78408;PMS5003;67697;50.750;-3.270;2023-03-23T11:38:57;16;11;
78408;PMS5003;67697;50.750;-3.270;2023-03-23T11:41:23;10;6;
78408;PMS5003;67697;50.750;-3.270;2023-03-23T11:43:47;14;14;
78408;PMS5003;67697;50.750;-3.270;2023-03-23T11:46:15;18;11;
78408;PMS5003;67697;50.750;-3.270;2023-03-23T11:48:40;14;10;
78408;PMS5003;67697;50.750;-3.270;2023-03-23T11:51:05;23;15;
78408;PMS5003;67697;50.750;-3.270;2023-03-23T11:53:33;19;13;
78408;PMS5003;67697;50.750;-3.270;2023-03-23T11:55:57;17;13;
78408;PMS5003;67697;50.750;-3.270;2023-03-23T11:58:20;19;15;
78408;PMS5003;67697;50.750;-3.270;2023-03-23T12:00:47;13;9;
78408;PMS5003;67697;50.750;-3.270;2023-03-23T12:05:40;13;10;
78408;PMS5003;67697;50.750;-3.270;2023-03-23T12:08:05;14;11;
78408;PMS5003;67697;50.750;-3.270;2023-03-23T12:10:28;12;10;
78408;PMS5003;67697;50.750;-3.270;2023-03-23T12:12:54;14;10;
78408;PMS5003;67697;50.750;-3.270;2023-03-23T12:15:19;14;10;
78408;PMS5003;67697;50.750;-3.270;2023-03-23T12:17:45;16;13;
78408;PMS5003;67697;50.750;-3.270;2023-03-23T12:20:12;17;11;
78408;PMS5003;67697;50.750;-3.270;2023-03-23T12:22:37;16;14;
78408;PMS5003;67697;50.750;-3.270;2023-03-23T12:25:01;20;18;
78408;PMS5003;67697;50.750;-3.270;2023-03-23T12:27:25;34;17;
78408;PMS5003;67697;50.750;-3.270;2023-03-23T12:29:51;18;14;
78408;PMS5003;67697;50.750;-3.270;2023-03-23T12:34:40;21;18;
78408;PMS5003;67697;50.750;-3.270;2023-03-23T12:37:08;27;23;
78408;PMS5003;67697;50.750;-3.270;2023-03-23T12:39:34;25;17;
78408;PMS5003;67697;50.750;-3.270;2023-03-23T12:41:54;33;21;
78408;PMS5003;67697;50.750;-3.270;2023-03-23T12:44:21;21;12;
78408;PMS5003;67697;50.750;-3.270;2023-03-23T12:46:48;25;20;
78408;PMS5003;67697;50.750;-3.270;2023-03-23T12:49:11;18;16;
78408;PMS5003;67697;50.750;-3.270;2023-03-23T12:51:35;23;16;
78408;PMS5003;67697;50.750;-3.270;2023-03-23T12:54:03;30;15;
78408;PMS5003;67697;50.750;-3.270;2023-03-23T12:56:29;27;19;
78408;PMS5003;67697;50.750;-3.270;2023-03-23T12:58:53;26;16;
78408;PMS5003;67697;50.750;-3.270;2023-03-23T13:01:18;27;17;
78408;PMS5003;67697;50.750;-3.270;2023-03-23T13:03:44;17;16;
78408;PMS5003;67697;50.750;-3.270;2023-03-23T13:06:09;24;16;
78408;PMS5003;67697;50.750;-3.270;2023-03-23T13:08:34;35;23;
78408;PMS5003;67697;50.750;-3.270;2023-03-23T13:10:59;31;25;
78408;PMS5003;67697;50.750;-3.270;2023-03-23T13:13:24;23;18;
78408;PMS5003;67697;50.750;-3.270;2023-03-23T13:15:58;21;17;
78408;PMS5003;67697;50.750;-3.270;2023-03-23T13:18:16;22;19;
78408;PMS5003;67697;50.750;-3.270;2023-03-23T13:20:43;29;18;
78408;PMS5003;67697;50.750;-3.270;2023-03-23T13:23:08;36;22;
78408;PMS5003;67697;50.750;-3.270;2023-03-23T13:25:44;36;21;
78408;PMS5003;67697;50.750;-3.270;2023-03-23T13:27:56;22;17;
78408;PMS5003;67697;50.750;-3.270;2023-03-23T13:30:22;17;11;
78408;PMS5003;67697;50.750;-3.270;2023-03-23T13:32:47;21;12;
78408;PMS5003;67697;50.750;-3.270;2023-03-23T13:35:13;14;10;
78408;PMS5003;67697;50.750;-3.270;2023-03-23T13:37:40;16;9;
78408;PMS5003;67697;50.750;-3.270;2023-03-23T13:42:29;16;11;
78408;PMS5003;67697;50.750;-3.270;2023-03-23T13:44:56;23;11;
78408;PMS5003;67697;50.750;-3.270;2023-03-23T13:47:24;14;8;
78408;PMS5003;67697;50.750;-3.270;2023-03-23T13:49:46;11;10;
78408;PMS5003;67697;50.750;-3.270;2023-03-23T13:52:14;18;10;
78408;PMS5003;67697;50.750;-3.270;2023-03-23T13:54:40;14;9;
78408;PMS5003;67697;50.750;-3.270;2023-03-23T13:57:02;12;10;
78408;PMS5003;67697;50.750;-3.270;2023-03-23T13:59:29;18;11;
78408;PMS5003;67697;50.750;-3.270;2023-03-23T14:01:53;21;12;
78408;PMS5003;67697;50.750;-3.270;2023-03-23T14:04:19;24;14;
78408;PMS5003;67697;50.750;-3.270;2023-03-23T14:06:44;21;10;
78408;PMS5003;67697;50.750;-3.270;2023-03-23T14:09:11;14;10;
78408;PMS5003;67697;50.750;-3.270;2023-03-23T14:11:44;18;15;
78408;PMS5003;67697;50.750;-3.270;2023-03-23T14:14:01;21;16;
78408;PMS5003;67697;50.750;-3.270;2023-03-23T14:16:26;34;17;
78408;PMS5003;67697;50.750;-3.270;2023-03-23T14:18:52;15;13;
78408;PMS5003;67697;50.750;-3.270;2023-03-23T14:21:16;21;13;
78408;PMS5003;67697;50.750;-3.270;2023-03-23T14:23:40;14;11;
78408;PMS5003;67697;50.750;-3.270;2023-03-23T14:26:09;17;12;
78408;PMS5003;67697;50.750;-3.270;2023-03-23T14:28:31;20;12;
78408;PMS5003;67697;50.750;-3.270;2023-03-23T14:30:57;23;11;
78408;PMS5003;67697;50.750;-3.270;2023-03-23T14:33:22;17;9;
78408;PMS5003;67697;50.750;-3.270;2023-03-23T14:35:49;16;10;
78408;PMS5003;67697;50.750;-3.270;2023-03-23T14:38:15;18;12;
78408;PMS5003;67697;50.750;-3.270;2023-03-23T14:40:39;9;9;
78408;PMS5003;67697;50.750;-3.270;2023-03-23T14:43:04;8;7;
78408;PMS5003;67697;50.750;-3.270;2023-03-23T14:45:30;11;8;
78408;PMS5003;67697;50.750;-3.270;2023-03-23T14:47:56;20;9;
78408;PMS5003;67697;50.750;-3.270;2023-03-23T14:50:22;14;8;
78408;PMS5003;67697;50.750;-3.270;2023-03-23T14:52:47;10;9;
78408;PMS5003;67697;50.750;-3.270;2023-03-23T14:55:13;11;8;
78408;PMS5003;67697;50.750;-3.270;2023-03-23T14:57:40;13;10;
78408;PMS5003;67697;50.750;-3.270;2023-03-23T15:00:04;16;8;
78408;PMS5003;67697;50.750;-3.270;2023-03-23T15:02:30;11;8;
78408;PMS5003;67697;50.750;-3.270;2023-03-23T15:04:54;13;13;
78408;PMS5003;67697;50.750;-3.270;2023-03-23T15:07:20;9;8;
78408;PMS5003;67697;50.750;-3.270;2023-03-23T15:09:45;16;8;
78408;PMS5003;67697;50.750;-3.270;2023-03-23T15:12:12;21;14;
78408;PMS5003;67697;50.750;-3.270;2023-03-23T15:14:37;16;10;
78408;PMS5003;67697;50.750;-3.270;2023-03-23T15:17:01;20;11;
78408;PMS5003;67697;50.750;-3.270;2023-03-23T15:19:28;16;13;
78408;PMS5003;67697;50.750;-3.270;2023-03-23T15:21:53;14;13;
78408;PMS5003;67697;50.750;-3.270;2023-03-23T15:24:19;20;15;
78408;PMS5003;67697;50.750;-3.270;2023-03-23T15:26:43;14;8;
78408;PMS5003;67697;50.750;-3.270;2023-03-23T15:29:11;23;11;
78408;PMS5003;67697;50.750;-3.270;2023-03-23T15:31:33;17;10;
78408;PMS5003;67697;50.750;-3.270;2023-03-23T15:34:01;21;14;
78408;PMS5003;67697;50.750;-3.270;2023-03-23T15:36:24;17;10;
78408;PMS5003;67697;50.750;-3.270;2023-03-23T15:38:50;13;10;
78408;PMS5003;67697;50.750;-3.270;2023-03-23T15:41:21;13;10;
78408;PMS5003;67697;50.750;-3.270;2023-03-23T15:48:44;7;4;
78408;PMS5003;67697;50.750;-3.270;2023-03-23T15:50:58;9;4;
78408;PMS5003;67697;50.750;-3.270;2023-03-23T15:53:26;8;5;
78408;PMS5003;67697;50.750;-3.270;2023-03-23T15:55:49;7;4;
78408;PMS5003;67697;50.750;-3.270;2023-03-23T15:58:15;7;7;
78408;PMS5003;67697;50.750;-3.270;2023-03-23T16:00:41;8;6;
78408;PMS5003;67697;50.750;-3.270;2023-03-23T16:03:07;2;2;
78408;PMS5003;67697;50.750;-3.270;2023-03-23T16:05:32;6;2;
78408;PMS5003;67697;50.750;-3.270;2023-03-23T16:07:57;3;3;
78408;PMS5003;67697;50.750;-3.270;2023-03-23T16:10:23;16;7;
78408;PMS5003;67697;50.750;-3.270;2023-03-23T16:12:49;9;3;
78408;PMS5003;67697;50.750;-3.270;2023-03-23T16:15:14;12;4;
78408;PMS5003;67697;50.750;-3.270;2023-03-23T16:17:40;8;7;
78408;PMS5003;67697;50.750;-3.270;2023-03-23T16:20:09;5;5;
78408;PMS5003;67697;50.750;-3.270;2023-03-23T16:22:31;7;5;
78408;PMS5003;67697;50.750;-3.270;2023-03-23T16:24:56;7;4;
78408;PMS5003;67697;50.750;-3.270;2023-03-23T16:27:22;11;8;
78408;PMS5003;67697;50.750;-3.270;2023-03-23T16:29:48;7;7;